sensor_id;sensor_type;location;lat;lon;timestamp;temperature;humidity
9118;DHT22;4594;50.994;7.126;2022-12-13T00:01:50;0.10;47.50
9118;DHT22;4594;50.994;7.126;2022-12-13T00:04:18;0.10;47.60
9118;DHT22;4594;50.994;7.126;2022-12-13T00:06:44;0.10;47.80
9118;DHT22;4594;50.994;7.126;2022-12-13T00:09:16;0.10;47.80
9118;DHT22;4594;50.994;7.126;2022-12-13T00:11:43;0.10;47.80
9118;DHT22;4594;50.994;7.126;2022-12-13T00:14:10;0.10;48.00
9118;DHT22;4594;50.994;7.126;2022-12-13T00:16:38;0.10;47.90
9118;DHT22;4594;50.994;7.126;2022-12-13T00:19:04;0.10;47.90
9118;DHT22;4594;50.994;7.126;2022-12-13T00:21:31;0.10;47.80
9118;DHT22;4594;50.994;7.126;2022-12-13T00:23:59;0.10;47.80
9118;DHT22;4594;50.994;7.126;2022-12-13T00:26:27;0.10;47.90
9118;DHT22;4594;50.994;7.126;2022-12-13T00:28:54;0.00;48.00
9118;DHT22;4594;50.994;7.126;2022-12-13T00:31:22;0.00;47.90
9118;DHT22;4594;50.994;7.126;2022-12-13T00:33:50;0.00;47.70
9118;DHT22;4594;50.994;7.126;2022-12-13T00:36:15;0.00;47.70
9118;DHT22;4594;50.994;7.126;2022-12-13T00:38:41;0.00;47.60
9118;DHT22;4594;50.994;7.126;2022-12-13T00:41:18;0.00;47.70
9118;DHT22;4594;50.994;7.126;2022-12-13T00:43:44;0.00;47.60
9118;DHT22;4594;50.994;7.126;2022-12-13T00:46:13;0.00;47.70
9118;DHT22;4594;50.994;7.126;2022-12-13T00:48:41;0.00;47.70
9118;DHT22;4594;50.994;7.126;2022-12-13T00:51:09;0.00;47.60
9118;DHT22;4594;50.994;7.126;2022-12-13T00:53:37;-0.10;47.50
9118;DHT22;4594;50.994;7.126;2022-12-13T00:56:03;-0.10;47.40
9118;DHT22;4594;50.994;7.126;2022-12-13T00:58:35;-0.10;47.30
9118;DHT22;4594;50.994;7.126;2022-12-13T01:01:03;-0.10;47.20
9118;DHT22;4594;50.994;7.126;2022-12-13T01:03:30;-0.10;47.10
9118;DHT22;4594;50.994;7.126;2022-12-13T01:05:56;-0.20;47.00
9118;DHT22;4594;50.994;7.126;2022-12-13T01:08:22;-0.20;46.90
9118;DHT22;4594;50.994;7.126;2022-12-13T01:10:48;-0.20;47.10
9118;DHT22;4594;50.994;7.126;2022-12-13T01:13:14;-0.30;46.70
9118;DHT22;4594;50.994;7.126;2022-12-13T01:15:43;-0.30;46.60
9118;DHT22;4594;50.994;7.126;2022-12-13T01:18:11;-0.30;46.40
9118;DHT22;4594;50.994;7.126;2022-12-13T01:20:38;-0.40;46.60
9118;DHT22;4594;50.994;7.126;2022-12-13T01:23:05;-0.40;46.60
9118;DHT22;4594;50.994;7.126;2022-12-13T01:25:31;-0.40;46.50
9118;DHT22;4594;50.994;7.126;2022-12-13T01:27:58;-0.50;46.40
9118;DHT22;4594;50.994;7.126;2022-12-13T01:30:25;-0.50;46.40
9118;DHT22;4594;50.994;7.126;2022-12-13T01:32:51;-0.50;46.50
9118;DHT22;4594;50.994;7.126;2022-12-13T01:35:16;-0.60;46.40
9118;DHT22;4594;50.994;7.126;2022-12-13T01:37:42;-0.60;46.50
9118;DHT22;4594;50.994;7.126;2022-12-13T01:40:09;-0.60;46.50
9118;DHT22;4594;50.994;7.126;2022-12-13T01:42:38;-0.60;46.50
9118;DHT22;4594;50.994;7.126;2022-12-13T01:45:21;-0.60;46.40
9118;DHT22;4594;50.994;7.126;2022-12-13T01:47:58;-0.70;46.00
9118;DHT22;4594;50.994;7.126;2022-12-13T01:50:33;-0.70;46.20
9118;DHT22;4594;50.994;7.126;2022-12-13T01:53:06;-0.70;46.20
9118;DHT22;4594;50.994;7.126;2022-12-13T01:55:36;-0.70;46.20
9118;DHT22;4594;50.994;7.126;2022-12-13T01:58:04;-0.80;46.50
9118;DHT22;4594;50.994;7.126;2022-12-13T02:00:32;-0.80;46.60
9118;DHT22;4594;50.994;7.126;2022-12-13T02:03:00;-0.80;46.60
9118;DHT22;4594;50.994;7.126;2022-12-13T02:05:33;-0.80;46.60
9118;DHT22;4594;50.994;7.126;2022-12-13T02:08:04;-0.80;46.70
9118;DHT22;4594;50.994;7.126;2022-12-13T02:10:32;-0.80;47.00
9118;DHT22;4594;50.994;7.126;2022-12-13T02:12:57;-0.80;47.10
9118;DHT22;4594;50.994;7.126;2022-12-13T02:15:27;-0.80;47.10
9118;DHT22;4594;50.994;7.126;2022-12-13T02:18:10;-0.80;46.90
9118;DHT22;4594;50.994;7.126;2022-12-13T02:21:12;-0.80;46.70
9118;DHT22;4594;50.994;7.126;2022-12-13T02:23:58;-0.80;46.20
9118;DHT22;4594;50.994;7.126;2022-12-13T02:27:09;-0.80;46.40
9118;DHT22;4594;50.994;7.126;2022-12-13T02:41:50;-0.90;46.30
9118;DHT22;4594;50.994;7.126;2022-12-13T02:44:24;-0.90;46.10
9118;DHT22;4594;50.994;7.126;2022-12-13T02:47:06;-1.00;46.20
9118;DHT22;4594;50.994;7.126;2022-12-13T02:49:38;-1.00;45.90
9118;DHT22;4594;50.994;7.126;2022-12-13T02:52:08;-1.00;46.20
9118;DHT22;4594;50.994;7.126;2022-12-13T02:54:36;-1.00;46.30
9118;DHT22;4594;50.994;7.126;2022-12-13T02:57:02;-1.10;46.30
9118;DHT22;4594;50.994;7.126;2022-12-13T02:59:33;-1.10;46.30
9118;DHT22;4594;50.994;7.126;2022-12-13T03:02:16;-1.10;46.20
9118;DHT22;4594;50.994;7.126;2022-12-13T03:11:04;-1.20;46.50
9118;DHT22;4594;50.994;7.126;2022-12-13T03:13:52;-1.10;47.60
9118;DHT22;4594;50.994;7.126;2022-12-13T03:16:30;-1.10;48.10
9118;DHT22;4594;50.994;7.126;2022-12-13T03:19:06;-1.10;48.60
9118;DHT22;4594;50.994;7.126;2022-12-13T03:21:42;-1.00;48.50
9118;DHT22;4594;50.994;7.126;2022-12-13T03:24:16;-1.00;48.30
9118;DHT22;4594;50.994;7.126;2022-12-13T03:26:44;-1.00;48.40
9118;DHT22;4594;50.994;7.126;2022-12-13T03:29:12;-1.00;48.20
9118;DHT22;4594;50.994;7.126;2022-12-13T03:31:37;-1.00;48.00
9118;DHT22;4594;50.994;7.126;2022-12-13T03:34:03;-1.00;48.00
9118;DHT22;4594;50.994;7.126;2022-12-13T03:36:29;-1.10;47.80
9118;DHT22;4594;50.994;7.126;2022-12-13T03:38:55;-1.10;47.70
9118;DHT22;4594;50.994;7.126;2022-12-13T03:41:23;-1.10;47.70
9118;DHT22;4594;50.994;7.126;2022-12-13T03:43:57;-1.10;47.30
9118;DHT22;4594;50.994;7.126;2022-12-13T03:46:24;-1.10;47.20
9118;DHT22;4594;50.994;7.126;2022-12-13T03:48:50;-1.10;47.30
9118;DHT22;4594;50.994;7.126;2022-12-13T03:51:15;-1.10;47.00
9118;DHT22;4594;50.994;7.126;2022-12-13T03:53:41;-1.10;46.90
9118;DHT22;4594;50.994;7.126;2022-12-13T03:56:07;-1.10;47.00
9118;DHT22;4594;50.994;7.126;2022-12-13T03:58:34;-1.10;46.50
9118;DHT22;4594;50.994;7.126;2022-12-13T04:01:00;-1.20;46.20
9118;DHT22;4594;50.994;7.126;2022-12-13T04:03:26;-1.20;46.00
9118;DHT22;4594;50.994;7.126;2022-12-13T04:05:52;-1.20;45.90
9118;DHT22;4594;50.994;7.126;2022-12-13T04:08:17;-1.20;45.80
9118;DHT22;4594;50.994;7.126;2022-12-13T04:10:43;-1.30;45.60
9118;DHT22;4594;50.994;7.126;2022-12-13T04:13:09;-1.30;45.40
9118;DHT22;4594;50.994;7.126;2022-12-13T04:15:54;-1.30;45.30
9118;DHT22;4594;50.994;7.126;2022-12-13T04:18:20;-1.30;45.20
9118;DHT22;4594;50.994;7.126;2022-12-13T04:20:46;-1.40;45.10
9118;DHT22;4594;50.994;7.126;2022-12-13T04:23:12;-1.40;45.10
9118;DHT22;4594;50.994;7.126;2022-12-13T04:25:39;-1.40;45.20
9118;DHT22;4594;50.994;7.126;2022-12-13T04:28:07;-1.40;45.20
9118;DHT22;4594;50.994;7.126;2022-12-13T04:30:34;-1.50;45.20
9118;DHT22;4594;50.994;7.126;2022-12-13T04:33:00;-1.40;45.30
9118;DHT22;4594;50.994;7.126;2022-12-13T04:35:27;-1.50;45.40
9118;DHT22;4594;50.994;7.126;2022-12-13T04:37:53;-1.50;45.20
9118;DHT22;4594;50.994;7.126;2022-12-13T04:40:19;-1.50;45.30
9118;DHT22;4594;50.994;7.126;2022-12-13T04:42:45;-1.50;45.20
9118;DHT22;4594;50.994;7.126;2022-12-13T04:45:15;-1.50;45.20
9118;DHT22;4594;50.994;7.126;2022-12-13T04:47:42;-1.50;45.00
9118;DHT22;4594;50.994;7.126;2022-12-13T04:50:08;-1.50;45.10
9118;DHT22;4594;50.994;7.126;2022-12-13T04:52:35;-1.50;44.90
9118;DHT22;4594;50.994;7.126;2022-12-13T04:55:02;-1.50;44.80
9118;DHT22;4594;50.994;7.126;2022-12-13T04:57:28;-1.50;44.70
9118;DHT22;4594;50.994;7.126;2022-12-13T04:59:53;-1.60;44.50
9118;DHT22;4594;50.994;7.126;2022-12-13T05:02:19;-1.60;44.30
9118;DHT22;4594;50.994;7.126;2022-12-13T05:04:45;-1.00;44.60
9118;DHT22;4594;50.994;7.126;2022-12-13T05:07:10;-1.60;44.10
9118;DHT22;4594;50.994;7.126;2022-12-13T05:09:36;-1.70;44.00
9118;DHT22;4594;50.994;7.126;2022-12-13T05:12:02;-1.70;44.10
9118;DHT22;4594;50.994;7.126;2022-12-13T05:14:29;-1.70;44.10
9118;DHT22;4594;50.994;7.126;2022-12-13T05:16:55;-1.70;44.10
9118;DHT22;4594;50.994;7.126;2022-12-13T05:19:21;-1.70;44.20
9118;DHT22;4594;50.994;7.126;2022-12-13T05:21:47;-1.70;44.10
9118;DHT22;4594;50.994;7.126;2022-12-13T05:24:13;-1.80;43.90
9118;DHT22;4594;50.994;7.126;2022-12-13T05:26:39;-1.80;43.90
9118;DHT22;4594;50.994;7.126;2022-12-13T05:29:05;-1.80;43.90
9118;DHT22;4594;50.994;7.126;2022-12-13T05:31:30;-1.80;43.80
9118;DHT22;4594;50.994;7.126;2022-12-13T05:33:56;-1.80;43.70
9118;DHT22;4594;50.994;7.126;2022-12-13T05:36:21;-1.80;43.70
9118;DHT22;4594;50.994;7.126;2022-12-13T05:38:50;-1.90;43.60
9118;DHT22;4594;50.994;7.126;2022-12-13T05:41:18;-1.90;43.70
9118;DHT22;4594;50.994;7.126;2022-12-13T05:43:47;-1.90;43.70
9118;DHT22;4594;50.994;7.126;2022-12-13T05:46:13;-1.90;43.80
9118;DHT22;4594;50.994;7.126;2022-12-13T05:48:39;-1.90;43.80
9118;DHT22;4594;50.994;7.126;2022-12-13T05:51:06;-1.90;43.80
9118;DHT22;4594;50.994;7.126;2022-12-13T05:53:32;-1.90;43.90
9118;DHT22;4594;50.994;7.126;2022-12-13T05:55:59;-1.90;43.90
9118;DHT22;4594;50.994;7.126;2022-12-13T05:58:25;-1.90;43.90
9118;DHT22;4594;50.994;7.126;2022-12-13T06:00:51;-1.90;44.00
9118;DHT22;4594;50.994;7.126;2022-12-13T06:03:16;-1.90;44.10
9118;DHT22;4594;50.994;7.126;2022-12-13T06:05:42;-1.90;44.30
9118;DHT22;4594;50.994;7.126;2022-12-13T06:08:09;-1.90;44.50
9118;DHT22;4594;50.994;7.126;2022-12-13T06:10:35;-1.90;44.60
9118;DHT22;4594;50.994;7.126;2022-12-13T06:13:05;-1.80;44.70
9118;DHT22;4594;50.994;7.126;2022-12-13T06:15:31;-1.80;44.40
9118;DHT22;4594;50.994;7.126;2022-12-13T06:17:58;-1.80;44.40
9118;DHT22;4594;50.994;7.126;2022-12-13T06:20:24;-1.80;44.20
9118;DHT22;4594;50.994;7.126;2022-12-13T06:22:51;-1.80;44.30
9118;DHT22;4594;50.994;7.126;2022-12-13T06:25:17;-1.70;44.20
9118;DHT22;4594;50.994;7.126;2022-12-13T06:27:43;-1.70;44.20
9118;DHT22;4594;50.994;7.126;2022-12-13T06:30:09;-1.70;44.10
9118;DHT22;4594;50.994;7.126;2022-12-13T06:32:35;-1.70;44.00
9118;DHT22;4594;50.994;7.126;2022-12-13T06:35:01;-1.70;43.90
9118;DHT22;4594;50.994;7.126;2022-12-13T06:37:27;-1.70;43.90
9118;DHT22;4594;50.994;7.126;2022-12-13T06:39:52;-1.70;43.80
9118;DHT22;4594;50.994;7.126;2022-12-13T06:42:18;-1.70;43.70
9118;DHT22;4594;50.994;7.126;2022-12-13T06:44:44;-1.80;43.60
9118;DHT22;4594;50.994;7.126;2022-12-13T06:47:10;-1.70;43.60
9118;DHT22;4594;50.994;7.126;2022-12-13T06:49:36;-1.80;43.50
9118;DHT22;4594;50.994;7.126;2022-12-13T06:52:02;-1.80;43.50
9118;DHT22;4594;50.994;7.126;2022-12-13T06:54:27;-1.80;43.40
9118;DHT22;4594;50.994;7.126;2022-12-13T06:56:53;-1.80;43.50
9118;DHT22;4594;50.994;7.126;2022-12-13T06:59:19;-1.80;43.50
9118;DHT22;4594;50.994;7.126;2022-12-13T07:01:45;-1.80;43.50
9118;DHT22;4594;50.994;7.126;2022-12-13T07:04:11;-1.80;43.40
9118;DHT22;4594;50.994;7.126;2022-12-13T07:06:37;-1.80;43.30
9118;DHT22;4594;50.994;7.126;2022-12-13T07:09:03;-1.80;43.20
9118;DHT22;4594;50.994;7.126;2022-12-13T07:11:31;-1.80;43.20
9118;DHT22;4594;50.994;7.126;2022-12-13T07:13:58;-1.80;43.20
9118;DHT22;4594;50.994;7.126;2022-12-13T07:16:25;-1.80;43.20
9118;DHT22;4594;50.994;7.126;2022-12-13T07:18:58;-1.90;43.20
9118;DHT22;4594;50.994;7.126;2022-12-13T07:21:26;-1.90;43.00
9118;DHT22;4594;50.994;7.126;2022-12-13T07:23:53;-1.90;43.10
9118;DHT22;4594;50.994;7.126;2022-12-13T07:26:19;-1.90;43.10
9118;DHT22;4594;50.994;7.126;2022-12-13T07:28:45;-1.90;43.00
9118;DHT22;4594;50.994;7.126;2022-12-13T07:31:11;-1.90;43.00
9118;DHT22;4594;50.994;7.126;2022-12-13T07:33:38;-1.90;43.10
9118;DHT22;4594;50.994;7.126;2022-12-13T07:36:11;-1.90;43.00
9118;DHT22;4594;50.994;7.126;2022-12-13T07:38:41;-1.90;43.00
9118;DHT22;4594;50.994;7.126;2022-12-13T07:41:07;-1.90;43.00
9118;DHT22;4594;50.994;7.126;2022-12-13T07:43:34;-1.90;43.10
9118;DHT22;4594;50.994;7.126;2022-12-13T07:46:02;-1.90;43.20
9118;DHT22;4594;50.994;7.126;2022-12-13T07:48:30;-1.90;43.10
9118;DHT22;4594;50.994;7.126;2022-12-13T07:51:05;-1.90;43.20
9118;DHT22;4594;50.994;7.126;2022-12-13T07:53:33;-2.00;42.80
9118;DHT22;4594;50.994;7.126;2022-12-13T07:56:07;-1.90;43.50
9118;DHT22;4594;50.994;7.126;2022-12-13T07:58:35;-1.80;43.80
9118;DHT22;4594;50.994;7.126;2022-12-13T08:01:08;-1.70;45.00
9118;DHT22;4594;50.994;7.126;2022-12-13T08:03:35;-1.50;45.40
9118;DHT22;4594;50.994;7.126;2022-12-13T08:06:06;-1.30;46.30
9118;DHT22;4594;50.994;7.126;2022-12-13T08:08:34;-1.20;46.80
9118;DHT22;4594;50.994;7.126;2022-12-13T08:11:05;-0.90;47.90
9118;DHT22;4594;50.994;7.126;2022-12-13T08:13:33;-0.60;48.40
9118;DHT22;4594;50.994;7.126;2022-12-13T08:16:00;-0.30;49.50
9118;DHT22;4594;50.994;7.126;2022-12-13T08:18:31;0.00;50.00
9118;DHT22;4594;50.994;7.126;2022-12-13T08:20:58;0.30;50.50
9118;DHT22;4594;50.994;7.126;2022-12-13T08:23:25;0.60;50.40
9118;DHT22;4594;50.994;7.126;2022-12-13T08:25:54;0.90;50.50
9118;DHT22;4594;50.994;7.126;2022-12-13T08:28:21;1.10;50.40
9118;DHT22;4594;50.994;7.126;2022-12-13T08:30:49;1.40;50.70
9118;DHT22;4594;50.994;7.126;2022-12-13T08:33:15;1.70;50.50
9118;DHT22;4594;50.994;7.126;2022-12-13T08:35:41;1.90;50.30
9118;DHT22;4594;50.994;7.126;2022-12-13T08:38:07;2.10;50.20
9118;DHT22;4594;50.994;7.126;2022-12-13T08:40:32;2.30;49.80
9118;DHT22;4594;50.994;7.126;2022-12-13T08:42:59;2.50;49.30
9118;DHT22;4594;50.994;7.126;2022-12-13T08:45:25;2.60;48.60
9118;DHT22;4594;50.994;7.126;2022-12-13T08:47:52;2.60;48.10
9118;DHT22;4594;50.994;7.126;2022-12-13T08:50:17;2.70;47.90
9118;DHT22;4594;50.994;7.126;2022-12-13T08:52:43;2.70;47.90
9118;DHT22;4594;50.994;7.126;2022-12-13T08:55:13;2.70;47.80
9118;DHT22;4594;50.994;7.126;2022-12-13T08:57:41;2.80;47.70
9118;DHT22;4594;50.994;7.126;2022-12-13T09:00:11;2.70;47.80
9118;DHT22;4594;50.994;7.126;2022-12-13T09:02:38;2.70;47.50
9118;DHT22;4594;50.994;7.126;2022-12-13T09:05:05;2.80;48.00
9118;DHT22;4594;50.994;7.126;2022-12-13T09:07:32;2.80;47.50
9118;DHT22;4594;50.994;7.126;2022-12-13T09:10:00;2.70;47.60
9118;DHT22;4594;50.994;7.126;2022-12-13T09:12:26;2.70;47.60
9118;DHT22;4594;50.994;7.126;2022-12-13T09:14:52;2.70;47.70
9118;DHT22;4594;50.994;7.126;2022-12-13T09:17:18;2.70;48.00
9118;DHT22;4594;50.994;7.126;2022-12-13T09:19:43;2.70;47.90
9118;DHT22;4594;50.994;7.126;2022-12-13T09:22:09;2.70;47.70
9118;DHT22;4594;50.994;7.126;2022-12-13T09:24:35;2.70;47.80
9118;DHT22;4594;50.994;7.126;2022-12-13T09:27:01;2.70;48.10
9118;DHT22;4594;50.994;7.126;2022-12-13T09:29:27;2.70;48.10
9118;DHT22;4594;50.994;7.126;2022-12-13T09:31:52;2.80;48.40
9118;DHT22;4594;50.994;7.126;2022-12-13T09:34:18;2.80;48.10
9118;DHT22;4594;50.994;7.126;2022-12-13T09:36:44;2.90;48.20
9118;DHT22;4594;50.994;7.126;2022-12-13T09:39:09;2.90;48.40
9118;DHT22;4594;50.994;7.126;2022-12-13T09:41:48;2.90;48.20
9118;DHT22;4594;50.994;7.126;2022-12-13T09:44:33;3.00;47.00
9118;DHT22;4594;50.994;7.126;2022-12-13T09:47:03;3.00;46.70
9118;DHT22;4594;50.994;7.126;2022-12-13T09:49:44;3.00;48.00
9118;DHT22;4594;50.994;7.126;2022-12-13T09:52:15;3.10;47.00
9118;DHT22;4594;50.994;7.126;2022-12-13T09:54:43;3.10;48.00
9118;DHT22;4594;50.994;7.126;2022-12-13T09:57:17;3.20;48.50
9118;DHT22;4594;50.994;7.126;2022-12-13T09:59:45;3.20;47.20
9118;DHT22;4594;50.994;7.126;2022-12-13T10:02:20;3.20;47.80
9118;DHT22;4594;50.994;7.126;2022-12-13T10:04:50;3.20;47.10
9118;DHT22;4594;50.994;7.126;2022-12-13T10:07:20;3.20;47.90
9118;DHT22;4594;50.994;7.126;2022-12-13T10:09:59;3.30;47.70
9118;DHT22;4594;50.994;7.126;2022-12-13T10:12:28;3.40;48.30
9118;DHT22;4594;50.994;7.126;2022-12-13T10:14:58;3.40;48.80
9118;DHT22;4594;50.994;7.126;2022-12-13T10:17:33;3.50;47.90
9118;DHT22;4594;50.994;7.126;2022-12-13T10:20:04;3.50;47.10
9118;DHT22;4594;50.994;7.126;2022-12-13T10:22:30;3.60;47.70
9118;DHT22;4594;50.994;7.126;2022-12-13T10:32:47;3.70;47.30
9118;DHT22;4594;50.994;7.126;2022-12-13T10:35:26;3.80;46.30
9118;DHT22;4594;50.994;7.126;2022-12-13T10:37:56;3.80;45.80
9118;DHT22;4594;50.994;7.126;2022-12-13T10:40:37;3.80;46.50
9118;DHT22;4594;50.994;7.126;2022-12-13T10:43:16;3.80;45.80
9118;DHT22;4594;50.994;7.126;2022-12-13T10:45:59;3.80;45.20
9118;DHT22;4594;50.994;7.126;2022-12-13T10:51:13;3.80;46.40
9118;DHT22;4594;50.994;7.126;2022-12-13T10:53:53;3.80;46.30
9118;DHT22;4594;50.994;7.126;2022-12-13T10:56:33;3.80;45.50
9118;DHT22;4594;50.994;7.126;2022-12-13T11:01:56;3.80;45.90
9118;DHT22;4594;50.994;7.126;2022-12-13T11:04:27;3.80;47.10
9118;DHT22;4594;50.994;7.126;2022-12-13T11:06:55;3.70;46.70
9118;DHT22;4594;50.994;7.126;2022-12-13T11:09:33;3.70;46.80
9118;DHT22;4594;50.994;7.126;2022-12-13T11:12:02;3.80;45.50
9118;DHT22;4594;50.994;7.126;2022-12-13T11:14:39;3.80;46.80
9118;DHT22;4594;50.994;7.126;2022-12-13T11:17:20;3.80;46.40
9118;DHT22;4594;50.994;7.126;2022-12-13T11:19:51;3.80;46.40
9118;DHT22;4594;50.994;7.126;2022-12-13T11:22:21;3.80;46.60
9118;DHT22;4594;50.994;7.126;2022-12-13T11:24:59;3.80;47.10
9118;DHT22;4594;50.994;7.126;2022-12-13T11:38:59;3.70;45.00
9118;DHT22;4594;50.994;7.126;2022-12-13T11:41:50;3.70;45.30
9118;DHT22;4594;50.994;7.126;2022-12-13T11:44:45;3.60;45.80
9118;DHT22;4594;50.994;7.126;2022-12-13T11:47:48;3.60;45.10
9118;DHT22;4594;50.994;7.126;2022-12-13T11:50:27;3.60;44.90
9118;DHT22;4594;50.994;7.126;2022-12-13T11:52:59;3.60;46.30
9118;DHT22;4594;50.994;7.126;2022-12-13T11:55:45;3.60;46.40
9118;DHT22;4594;50.994;7.126;2022-12-13T12:01:02;3.60;45.70
9118;DHT22;4594;50.994;7.126;2022-12-13T12:03:53;3.60;46.10
9118;DHT22;4594;50.994;7.126;2022-12-13T12:06:38;3.60;44.80
9118;DHT22;4594;50.994;7.126;2022-12-13T12:09:13;3.60;45.40
9118;DHT22;4594;50.994;7.126;2022-12-13T12:11:52;3.60;46.40
9118;DHT22;4594;50.994;7.126;2022-12-13T12:14:50;3.70;45.60
9118;DHT22;4594;50.994;7.126;2022-12-13T12:17:23;3.60;44.20
9118;DHT22;4594;50.994;7.126;2022-12-13T12:19:52;3.60;45.80
9118;DHT22;4594;50.994;7.126;2022-12-13T12:31:52;3.60;45.10
9118;DHT22;4594;50.994;7.126;2022-12-13T12:34:39;3.40;43.60
9118;DHT22;4594;50.994;7.126;2022-12-13T12:37:34;3.50;44.60
9118;DHT22;4594;50.994;7.126;2022-12-13T12:46:07;3.50;44.40
9118;DHT22;4594;50.994;7.126;2022-12-13T12:49:20;3.50;44.60
9118;DHT22;4594;50.994;7.126;2022-12-13T13:03:35;3.40;45.30
9118;DHT22;4594;50.994;7.126;2022-12-13T13:06:26;3.30;46.20
9118;DHT22;4594;50.994;7.126;2022-12-13T13:09:17;3.30;44.50
9118;DHT22;4594;50.994;7.126;2022-12-13T13:11:45;3.30;44.20
9118;DHT22;4594;50.994;7.126;2022-12-13T13:14:34;3.30;46.10
9118;DHT22;4594;50.994;7.126;2022-12-13T13:22:48;3.30;44.30
9118;DHT22;4594;50.994;7.126;2022-12-13T13:25:26;3.30;46.30
9118;DHT22;4594;50.994;7.126;2022-12-13T13:28:05;3.30;45.70
9118;DHT22;4594;50.994;7.126;2022-12-13T13:31:00;3.30;45.90
9118;DHT22;4594;50.994;7.126;2022-12-13T13:33:50;3.40;46.70
9118;DHT22;4594;50.994;7.126;2022-12-13T13:50:07;3.50;45.50
9118;DHT22;4594;50.994;7.126;2022-12-13T13:53:07;3.50;45.40
9118;DHT22;4594;50.994;7.126;2022-12-13T14:23:43;3.50;46.00
9118;DHT22;4594;50.994;7.126;2022-12-13T14:26:49;3.50;45.40
9118;DHT22;4594;50.994;7.126;2022-12-13T14:29:30;3.50;43.90
9118;DHT22;4594;50.994;7.126;2022-12-13T14:32:17;3.40;45.60
9118;DHT22;4594;50.994;7.126;2022-12-13T14:34:47;3.40;45.50
9118;DHT22;4594;50.994;7.126;2022-12-13T14:37:33;3.40;46.50
9118;DHT22;4594;50.994;7.126;2022-12-13T14:43:02;3.40;44.20
9118;DHT22;4594;50.994;7.126;2022-12-13T14:45:35;3.40;46.10
9118;DHT22;4594;50.994;7.126;2022-12-13T14:48:05;3.40;44.80
9118;DHT22;4594;50.994;7.126;2022-12-13T14:50:40;3.40;45.80
9118;DHT22;4594;50.994;7.126;2022-12-13T14:53:24;3.40;45.80
9118;DHT22;4594;50.994;7.126;2022-12-13T14:56:04;3.40;44.50
9118;DHT22;4594;50.994;7.126;2022-12-13T14:58:38;3.40;44.70
9118;DHT22;4594;50.994;7.126;2022-12-13T15:01:21;3.40;46.00
9118;DHT22;4594;50.994;7.126;2022-12-13T15:06:47;3.30;44.70
9118;DHT22;4594;50.994;7.126;2022-12-13T15:09:19;3.30;45.90
9118;DHT22;4594;50.994;7.126;2022-12-13T15:11:45;3.30;46.30
9118;DHT22;4594;50.994;7.126;2022-12-13T15:14:17;3.20;46.00
9118;DHT22;4594;50.994;7.126;2022-12-13T15:16:49;3.20;45.30
9118;DHT22;4594;50.994;7.126;2022-12-13T15:19:20;3.20;45.40
9118;DHT22;4594;50.994;7.126;2022-12-13T15:22:05;3.20;45.90
9118;DHT22;4594;50.994;7.126;2022-12-13T15:24:39;3.20;44.60
9118;DHT22;4594;50.994;7.126;2022-12-13T15:27:12;3.10;45.90
9118;DHT22;4594;50.994;7.126;2022-12-13T15:29:40;3.10;45.80
9118;DHT22;4594;50.994;7.126;2022-12-13T15:32:16;3.10;46.00
9118;DHT22;4594;50.994;7.126;2022-12-13T15:34:45;3.10;44.90
9118;DHT22;4594;50.994;7.126;2022-12-13T15:37:21;3.00;45.60
9118;DHT22;4594;50.994;7.126;2022-12-13T15:39:58;3.00;45.40
9118;DHT22;4594;50.994;7.126;2022-12-13T15:42:36;3.00;45.30
9118;DHT22;4594;50.994;7.126;2022-12-13T15:45:18;3.00;44.90
9118;DHT22;4594;50.994;7.126;2022-12-13T15:47:47;2.90;44.10
9118;DHT22;4594;50.994;7.126;2022-12-13T15:53:02;2.90;43.80
9118;DHT22;4594;50.994;7.126;2022-12-13T15:55:35;2.90;45.40
9118;DHT22;4594;50.994;7.126;2022-12-13T15:58:01;2.80;44.90
9118;DHT22;4594;50.994;7.126;2022-12-13T16:00:31;2.80;45.60
9118;DHT22;4594;50.994;7.126;2022-12-13T16:03:10;2.80;45.20
9118;DHT22;4594;50.994;7.126;2022-12-13T16:05:48;2.80;45.40
9118;DHT22;4594;50.994;7.126;2022-12-13T16:08:29;2.80;44.70
9118;DHT22;4594;50.994;7.126;2022-12-13T16:10:57;2.70;44.90
9118;DHT22;4594;50.994;7.126;2022-12-13T16:13:31;2.70;45.60
9118;DHT22;4594;50.994;7.126;2022-12-13T16:18:54;2.70;45.20
9118;DHT22;4594;50.994;7.126;2022-12-13T16:21:22;2.70;45.00
9118;DHT22;4594;50.994;7.126;2022-12-13T16:23:48;2.70;45.40
9118;DHT22;4594;50.994;7.126;2022-12-13T16:26:21;2.60;45.40
9118;DHT22;4594;50.994;7.126;2022-12-13T16:28:50;2.60;44.50
9118;DHT22;4594;50.994;7.126;2022-12-13T16:31:23;2.60;45.40
9118;DHT22;4594;50.994;7.126;2022-12-13T16:33:52;2.60;44.40
9118;DHT22;4594;50.994;7.126;2022-12-13T16:36:17;2.60;45.30
9118;DHT22;4594;50.994;7.126;2022-12-13T16:38:44;2.50;45.20
9118;DHT22;4594;50.994;7.126;2022-12-13T16:41:10;2.50;45.10
9118;DHT22;4594;50.994;7.126;2022-12-13T16:43:43;2.50;45.10
9118;DHT22;4594;50.994;7.126;2022-12-13T16:46:15;2.50;44.60
9118;DHT22;4594;50.994;7.126;2022-12-13T16:48:41;2.50;45.10
9118;DHT22;4594;50.994;7.126;2022-12-13T16:51:07;2.50;45.10
9118;DHT22;4594;50.994;7.126;2022-12-13T16:53:33;2.50;45.00
9118;DHT22;4594;50.994;7.126;2022-12-13T16:55:59;2.40;45.10
9118;DHT22;4594;50.994;7.126;2022-12-13T16:58:25;2.40;45.10
9118;DHT22;4594;50.994;7.126;2022-12-13T17:00:50;2.40;45.30
9118;DHT22;4594;50.994;7.126;2022-12-13T17:03:17;2.40;45.20
9118;DHT22;4594;50.994;7.126;2022-12-13T17:05:43;2.40;45.00
9118;DHT22;4594;50.994;7.126;2022-12-13T17:08:11;2.40;45.00
9118;DHT22;4594;50.994;7.126;2022-12-13T17:10:38;2.40;44.90
9118;DHT22;4594;50.994;7.126;2022-12-13T17:13:05;2.40;45.00
9118;DHT22;4594;50.994;7.126;2022-12-13T17:15:31;2.40;44.90
9118;DHT22;4594;50.994;7.126;2022-12-13T17:17:57;2.30;44.90
9118;DHT22;4594;50.994;7.126;2022-12-13T17:20:23;2.30;44.80
9118;DHT22;4594;50.994;7.126;2022-12-13T17:22:49;2.30;44.80
9118;DHT22;4594;50.994;7.126;2022-12-13T17:25:15;2.30;44.70
9118;DHT22;4594;50.994;7.126;2022-12-13T17:27:42;2.30;44.80
9118;DHT22;4594;50.994;7.126;2022-12-13T17:30:12;2.30;44.70
9118;DHT22;4594;50.994;7.126;2022-12-13T17:32:40;2.30;44.30
9118;DHT22;4594;50.994;7.126;2022-12-13T17:35:06;2.30;44.70
9118;DHT22;4594;50.994;7.126;2022-12-13T17:37:32;2.20;44.50
9118;DHT22;4594;50.994;7.126;2022-12-13T17:39:58;2.30;44.70
9118;DHT22;4594;50.994;7.126;2022-12-13T17:42:23;2.20;44.50
9118;DHT22;4594;50.994;7.126;2022-12-13T17:44:50;2.20;44.60
9118;DHT22;4594;50.994;7.126;2022-12-13T17:47:15;2.20;44.30
9118;DHT22;4594;50.994;7.126;2022-12-13T17:49:41;2.20;44.30
9118;DHT22;4594;50.994;7.126;2022-12-13T17:52:07;2.20;44.10
9118;DHT22;4594;50.994;7.126;2022-12-13T17:54:32;2.10;44.20
9118;DHT22;4594;50.994;7.126;2022-12-13T17:56:59;2.10;44.20
9118;DHT22;4594;50.994;7.126;2022-12-13T17:59:24;2.10;44.40
9118;DHT22;4594;50.994;7.126;2022-12-13T18:01:51;2.10;44.30
9118;DHT22;4594;50.994;7.126;2022-12-13T18:04:18;2.10;44.30
9118;DHT22;4594;50.994;7.126;2022-12-13T18:06:44;2.10;44.40
9118;DHT22;4594;50.994;7.126;2022-12-13T18:09:11;2.10;44.50
9118;DHT22;4594;50.994;7.126;2022-12-13T18:11:37;2.00;44.30
9118;DHT22;4594;50.994;7.126;2022-12-13T18:14:05;2.00;44.40
9118;DHT22;4594;50.994;7.126;2022-12-13T18:16:32;2.00;44.20
9118;DHT22;4594;50.994;7.126;2022-12-13T18:18:59;2.00;44.20
9118;DHT22;4594;50.994;7.126;2022-12-13T18:21:25;2.00;44.30
9118;DHT22;4594;50.994;7.126;2022-12-13T18:23:52;2.00;44.10
9118;DHT22;4594;50.994;7.126;2022-12-13T18:26:18;2.00;44.30
9118;DHT22;4594;50.994;7.126;2022-12-13T18:28:45;2.00;44.30
9118;DHT22;4594;50.994;7.126;2022-12-13T18:31:13;2.00;44.20
9118;DHT22;4594;50.994;7.126;2022-12-13T18:33:41;2.00;44.20
9118;DHT22;4594;50.994;7.126;2022-12-13T18:36:08;2.00;44.30
9118;DHT22;4594;50.994;7.126;2022-12-13T18:38:35;2.00;44.30
9118;DHT22;4594;50.994;7.126;2022-12-13T18:41:06;2.00;44.20
9118;DHT22;4594;50.994;7.126;2022-12-13T18:43:43;2.00;43.60